createdAt,value
2018-03-23T00:02:09.306Z,2.10
2018-03-23T00:04:37.675Z,2.00
2018-03-23T00:07:06.066Z,2.00
2018-03-23T00:09:34.446Z,2.10
2018-03-23T00:12:02.853Z,2.10
2018-03-23T00:14:31.990Z,2.00
2018-03-23T00:17:00.408Z,2.00
2018-03-23T00:19:28.783Z,2.00
2018-03-23T00:21:57.164Z,2.00
2018-03-23T00:24:25.554Z,2.10
2018-03-23T00:26:53.930Z,2.10
2018-03-23T00:29:23.160Z,2.20
2018-03-23T00:31:51.533Z,2.20
2018-03-23T00:34:20.914Z,2.10
2018-03-23T00:36:49.284Z,2.10
2018-03-23T00:39:17.676Z,2.10
2018-03-23T00:41:46.844Z,2.20
2018-03-23T00:44:15.217Z,2.20
2018-03-23T00:46:43.631Z,2.30
2018-03-23T00:49:12.766Z,2.30
2018-03-23T00:51:41.369Z,2.30
2018-03-23T00:54:09.744Z,2.30
2018-03-23T00:56:38.122Z,2.30
2018-03-23T00:59:06.530Z,2.30
2018-03-23T01:01:34.898Z,2.30
2018-03-23T01:04:03.294Z,2.30
2018-03-23T01:06:32.432Z,2.30
2018-03-23T01:09:00.860Z,2.30
2018-03-23T01:11:29.259Z,2.30
2018-03-23T01:13:58.406Z,2.20
2018-03-23T01:16:26.816Z,2.20
2018-03-23T01:18:55.202Z,2.30
2018-03-23T01:21:24.361Z,2.30
2018-03-23T01:23:52.731Z,2.30
2018-03-23T01:26:21.332Z,2.30
2018-03-23T01:28:49.717Z,2.40
2018-03-23T01:31:18.090Z,2.40
2018-03-23T01:33:46.512Z,2.50
2018-03-23T01:36:15.658Z,2.50
2018-03-23T01:38:44.050Z,2.50
2018-03-23T01:41:12.420Z,2.50
2018-03-23T01:43:40.829Z,2.50
2018-03-23T01:46:09.282Z,2.60
2018-03-23T01:48:37.655Z,2.60
2018-03-23T01:51:06.069Z,2.60
2018-03-23T01:53:44.498Z,2.50
2018-03-23T01:56:13.661Z,2.60
2018-03-23T01:58:42.041Z,2.60
2018-03-23T02:01:10.458Z,2.60
2018-03-23T02:03:39.602Z,2.50
2018-03-23T02:06:07.966Z,2.50
2018-03-23T02:08:36.369Z,2.50
2018-03-23T02:11:04.743Z,2.50
2018-03-23T02:13:33.143Z,2.50
2018-03-23T02:16:01.522Z,2.40
2018-03-23T02:18:29.930Z,2.40
2018-03-23T02:20:58.310Z,2.40
2018-03-23T02:23:26.699Z,2.40
2018-03-23T02:25:55.123Z,2.40
2018-03-23T02:28:23.499Z,2.40
2018-03-23T02:30:51.927Z,2.40
2018-03-23T02:33:20.291Z,2.40
2018-03-23T02:35:49.433Z,2.40
2018-03-23T02:38:17.830Z,2.40
2018-03-23T02:40:46.199Z,2.40
2018-03-23T02:43:14.594Z,2.40
2018-03-23T02:45:42.992Z,2.40
2018-03-23T02:48:12.343Z,2.30
2018-03-23T02:50:40.717Z,2.30
2018-03-23T02:53:10.062Z,2.40
2018-03-23T02:55:38.454Z,2.30
2018-03-23T02:58:07.599Z,2.40
2018-03-23T03:00:36.005Z,2.40
2018-03-23T03:03:04.387Z,2.30
2018-03-23T03:05:32.937Z,2.30
2018-03-23T03:08:01.313Z,2.30
2018-03-23T03:10:29.689Z,2.30
2018-03-23T03:12:58.102Z,2.30
2018-03-23T03:15:26.485Z,2.40
2018-03-23T03:17:54.890Z,2.40
2018-03-23T03:20:24.023Z,2.50
2018-03-23T03:22:52.729Z,2.50
2018-03-23T03:25:21.122Z,2.50
2018-03-23T03:27:49.501Z,2.50
2018-03-23T03:30:17.902Z,2.50
2018-03-23T03:32:47.039Z,2.60
2018-03-23T03:35:15.434Z,2.50
2018-03-23T03:37:43.817Z,2.60
2018-03-23T03:40:12.378Z,2.60
2018-03-23T03:42:40.754Z,2.60
2018-03-23T03:45:09.126Z,2.60
2018-03-23T03:47:37.533Z,2.60
2018-03-23T03:50:05.946Z,2.50
2018-03-23T03:52:34.340Z,2.60
2018-03-23T03:55:03.496Z,2.70
2018-03-23T03:57:31.911Z,2.60
2018-03-23T04:00:01.050Z,2.60
2018-03-23T04:02:29.444Z,2.60
2018-03-23T04:04:57.851Z,2.70
2018-03-23T04:07:26.230Z,2.70
2018-03-23T04:09:54.630Z,2.70
2018-03-23T04:12:23.846Z,2.80
2018-03-23T04:14:52.555Z,2.80
2018-03-23T04:17:20.920Z,2.80
2018-03-23T04:22:18.079Z,2.70
2018-03-23T04:24:46.481Z,2.60
2018-03-23T04:27:15.183Z,2.70
2018-03-23T04:29:44.370Z,2.60
2018-03-23T04:32:12.812Z,2.50
2018-03-23T04:34:41.333Z,2.60
2018-03-23T04:37:09.829Z,2.60
2018-03-23T04:39:38.221Z,2.60
2018-03-23T04:42:06.607Z,2.60
2018-03-23T04:44:35.766Z,2.50
2018-03-23T04:47:04.125Z,2.50
2018-03-23T04:49:32.550Z,2.50
2018-03-23T04:52:00.922Z,2.40
2018-03-23T04:54:29.299Z,2.50
2018-03-23T04:56:57.701Z,2.50
2018-03-23T04:59:26.106Z,2.50
2018-03-23T05:01:55.778Z,2.50
2018-03-23T05:04:24.790Z,2.50
2018-03-23T05:06:55.019Z,2.50
2018-03-23T05:09:23.824Z,2.40
2018-03-23T05:11:52.814Z,2.50
2018-03-23T05:14:21.693Z,2.50
2018-03-23T05:16:50.716Z,2.50
2018-03-23T05:19:19.845Z,2.50
2018-03-23T05:21:50.673Z,2.50
2018-03-23T05:24:19.780Z,2.50
2018-03-23T05:26:49.867Z,2.40
2018-03-23T05:29:18.238Z,2.40
2018-03-23T05:31:46.635Z,2.30
2018-03-23T05:34:15.001Z,2.30
2018-03-23T05:36:43.386Z,2.40
2018-03-23T05:39:11.763Z,2.40
2018-03-23T05:41:40.330Z,2.40
2018-03-23T05:44:08.709Z,2.40
2018-03-23T05:46:37.086Z,2.50
2018-03-23T05:49:05.493Z,2.50
2018-03-23T05:51:33.866Z,2.50
2018-03-23T05:54:02.252Z,2.50
2018-03-23T05:56:30.623Z,2.60
2018-03-23T05:58:59.387Z,2.50
2018-03-23T06:01:27.763Z,2.60
2018-03-23T06:03:56.193Z,2.60
2018-03-23T06:06:24.622Z,2.50
2018-03-23T06:08:52.997Z,2.50
2018-03-23T06:11:21.381Z,2.60
2018-03-23T06:13:49.756Z,2.60
2018-03-23T06:16:18.343Z,2.60
2018-03-23T06:18:46.717Z,2.70
2018-03-23T06:21:15.108Z,2.70
2018-03-23T06:23:43.498Z,2.70
2018-03-23T06:26:11.873Z,2.80
2018-03-23T06:28:40.274Z,2.80
2018-03-23T06:31:08.642Z,2.80
2018-03-23T06:33:37.303Z,2.90
2018-03-23T06:36:05.682Z,2.80
2018-03-23T06:38:36.848Z,2.80
2018-03-23T06:41:05.252Z,2.80
2018-03-23T06:43:34.634Z,2.80
2018-03-23T06:46:03.418Z,2.80
2018-03-23T06:48:31.794Z,2.80
2018-03-23T06:51:00.222Z,2.80
2018-03-23T06:53:28.606Z,2.80
2018-03-23T06:55:56.979Z,2.80
2018-03-23T06:58:25.385Z,2.80
2018-03-23T07:00:53.762Z,2.90
2018-03-23T07:03:22.148Z,2.80
2018-03-23T07:05:50.518Z,2.80
2018-03-23T07:08:18.938Z,2.80
2018-03-23T07:10:47.334Z,2.90
2018-03-23T07:13:16.480Z,2.90
2018-03-23T07:15:44.898Z,2.90
2018-03-23T07:18:13.261Z,2.90
2018-03-23T07:20:42.438Z,2.90
2018-03-23T07:23:10.821Z,2.90
2018-03-23T07:25:39.283Z,3.00
2018-03-23T07:28:07.660Z,3.00
2018-03-23T07:30:36.039Z,3.10
2018-03-23T07:33:04.438Z,3.10
2018-03-23T07:35:32.818Z,3.10
2018-03-23T07:38:01.252Z,3.10
2018-03-23T07:40:29.623Z,3.00
2018-03-23T07:42:58.803Z,3.00
2018-03-23T07:45:27.221Z,3.00
2018-03-23T07:47:55.609Z,3.10
2018-03-23T07:50:24.011Z,3.10
2018-03-23T07:52:52.387Z,3.10
2018-03-23T07:55:20.785Z,3.20
2018-03-23T07:57:49.199Z,3.30
2018-03-23T08:00:17.955Z,3.20
2018-03-23T08:02:47.836Z,3.30
2018-03-23T08:05:16.214Z,3.30
2018-03-23T08:07:44.606Z,3.30
2018-03-23T08:10:12.977Z,3.40
2018-03-23T08:12:41.370Z,3.40
2018-03-23T08:15:18.940Z,3.40
2018-03-23T08:17:47.452Z,3.40
2018-03-23T08:20:15.831Z,3.40
2018-03-23T08:22:44.206Z,3.40
2018-03-23T08:25:12.610Z,3.50
2018-03-23T08:27:41.834Z,3.40
2018-03-23T08:30:10.322Z,3.40
2018-03-23T08:32:38.794Z,3.50
2018-03-23T08:35:08.138Z,3.60
2018-03-23T08:37:37.370Z,3.50
2018-03-23T08:40:05.772Z,3.50
2018-03-23T08:42:34.161Z,3.50
2018-03-23T08:45:02.526Z,3.60
2018-03-23T08:47:30.926Z,3.60
2018-03-23T08:49:59.304Z,3.70
2018-03-23T08:52:27.897Z,3.70
2018-03-23T08:54:56.278Z,3.60
2018-03-23T08:57:25.965Z,3.60
2018-03-23T08:59:54.441Z,3.70
2018-03-23T09:02:22.862Z,3.80
2018-03-23T09:04:51.268Z,3.80
2018-03-23T09:07:20.475Z,3.90
2018-03-23T09:09:49.645Z,4.00
2018-03-23T09:12:18.051Z,3.90
2018-03-23T09:14:47.206Z,4.00
2018-03-23T09:17:15.602Z,4.00
2018-03-23T09:19:43.987Z,4.10
2018-03-23T09:22:12.466Z,4.20
2018-03-23T09:24:40.892Z,4.30
2018-03-23T09:27:09.519Z,4.30
2018-03-23T09:29:38.377Z,4.20
2018-03-23T09:32:07.313Z,4.20
2018-03-23T09:34:35.718Z,4.20
2018-03-23T09:37:04.182Z,4.30
2018-03-23T09:39:32.626Z,4.20
2018-03-23T09:42:01.006Z,4.30
2018-03-23T09:44:29.423Z,4.40
2018-03-23T09:46:58.611Z,4.70
2018-03-23T09:49:26.995Z,4.70
2018-03-23T09:51:56.241Z,4.80
2018-03-23T09:54:24.657Z,4.80
2018-03-23T09:56:53.042Z,4.80
2018-03-23T09:59:21.438Z,4.90
2018-03-23T10:01:51.705Z,4.90
2018-03-23T10:04:20.531Z,4.90
2018-03-23T10:06:48.912Z,4.80
2018-03-23T10:09:17.311Z,4.80
2018-03-23T10:11:46.542Z,5.00
2018-03-23T10:14:14.943Z,5.00
2018-03-23T10:16:43.317Z,5.00
2018-03-23T10:19:11.982Z,4.90
2018-03-23T10:21:40.409Z,5.00
2018-03-23T10:24:08.786Z,5.00
2018-03-23T10:26:37.187Z,5.00
2018-03-23T10:29:05.631Z,5.10
2018-03-23T10:31:34.020Z,5.10
2018-03-23T10:34:02.559Z,5.20
2018-03-23T10:36:30.963Z,5.30
2018-03-23T10:38:59.346Z,5.30
2018-03-23T10:41:27.734Z,5.40
2018-03-23T10:43:56.177Z,5.50
2018-03-23T10:46:24.553Z,5.60
2018-03-23T10:48:53.022Z,5.60
2018-03-23T10:51:21.404Z,5.60
2018-03-23T10:53:50.003Z,5.60
2018-03-23T10:56:18.379Z,5.70
2018-03-23T10:58:46.749Z,5.70
2018-03-23T11:01:20.763Z,5.70
2018-03-23T11:03:49.206Z,5.60
2018-03-23T11:06:17.579Z,5.70
2018-03-23T11:08:46.779Z,5.70
2018-03-23T11:11:16.714Z,5.70
2018-03-23T11:13:45.094Z,5.70
2018-03-23T11:16:13.509Z,5.70
2018-03-23T11:18:41.886Z,5.70
2018-03-23T11:21:10.255Z,5.60
2018-03-23T11:23:38.664Z,5.60
2018-03-23T11:26:07.050Z,5.60
2018-03-23T11:28:35.481Z,5.60
2018-03-23T11:31:03.887Z,5.60
2018-03-23T11:33:32.304Z,5.60
2018-03-23T11:36:01.458Z,5.60
2018-03-23T11:38:30.088Z,5.60
2018-03-23T11:40:59.241Z,5.60
2018-03-23T11:43:27.642Z,5.60
2018-03-23T11:45:56.070Z,5.60
2018-03-23T11:48:24.447Z,5.60
2018-03-23T11:50:53.058Z,5.60
2018-03-23T11:53:22.371Z,5.80
2018-03-23T11:55:50.759Z,5.70
2018-03-23T11:58:19.226Z,5.80
2018-03-23T12:00:47.600Z,5.80
2018-03-23T12:03:16.261Z,5.90
2018-03-23T12:05:44.647Z,6.00
2018-03-23T12:08:13.012Z,6.20
2018-03-23T12:10:41.422Z,6.30
2018-03-23T12:13:09.803Z,6.40
2018-03-23T12:15:38.225Z,6.40
2018-03-23T12:18:07.362Z,6.50
2018-03-23T12:20:35.745Z,6.50
2018-03-23T12:23:04.143Z,6.50
2018-03-23T12:25:32.514Z,6.50
2018-03-23T12:28:00.937Z,6.60
2018-03-23T12:30:29.315Z,6.60
2018-03-23T12:32:57.706Z,6.70
2018-03-23T12:35:26.086Z,6.70
2018-03-23T12:37:54.718Z,6.70
2018-03-23T12:40:23.046Z,6.70
2018-03-23T12:42:51.450Z,6.70
2018-03-23T12:45:19.846Z,6.70
2018-03-23T12:47:48.227Z,6.70
2018-03-23T12:50:16.657Z,6.60
2018-03-23T12:52:45.042Z,6.60
2018-03-23T12:55:13.409Z,6.70
2018-03-23T12:57:41.795Z,6.90
2018-03-23T13:00:10.170Z,7.10
2018-03-23T13:02:38.576Z,7.30
2018-03-23T13:05:07.007Z,7.50
2018-03-23T13:07:36.281Z,7.70
2018-03-23T13:10:04.663Z,7.60
2018-03-23T13:12:33.036Z,7.70
2018-03-23T13:15:01.433Z,7.80
2018-03-23T13:17:29.803Z,8.10
2018-03-23T13:19:58.342Z,8.20
2018-03-23T13:22:26.718Z,8.30
2018-03-23T13:24:55.094Z,8.60
2018-03-23T13:27:23.495Z,8.90
2018-03-23T13:29:51.874Z,9.10
2018-03-23T13:32:20.457Z,9.00
2018-03-23T13:34:48.838Z,9.10
2018-03-23T13:37:17.211Z,9.20
2018-03-23T13:39:45.617Z,9.20
2018-03-23T13:42:14.111Z,9.10
2018-03-23T13:44:43.593Z,8.90
2018-03-23T13:47:11.987Z,8.90
2018-03-23T13:49:41.140Z,8.90
2018-03-23T13:52:09.537Z,8.80
2018-03-23T13:54:37.913Z,8.80
2018-03-23T13:57:06.403Z,8.60
2018-03-23T13:59:40.213Z,8.50
2018-03-23T14:05:06.876Z,8.60
2018-03-23T14:07:35.379Z,8.60
2018-03-23T14:10:04.539Z,8.50
2018-03-23T14:12:32.911Z,8.50
2018-03-23T14:15:01.314Z,8.40
2018-03-23T14:17:29.689Z,8.30
2018-03-23T14:19:58.335Z,8.30
2018-03-23T14:22:26.806Z,8.20
2018-03-23T14:24:55.179Z,8.30
2018-03-23T14:27:23.575Z,8.40
2018-03-23T14:29:51.963Z,8.50
2018-03-23T14:32:20.490Z,8.50
2018-03-23T14:34:49.635Z,8.70
2018-03-23T14:37:18.324Z,8.70
2018-03-23T14:39:46.745Z,8.90
2018-03-23T14:42:16.005Z,9.30
2018-03-23T14:44:45.205Z,9.30
2018-03-23T14:47:13.818Z,9.50
2018-03-23T14:49:43.216Z,9.70
2018-03-23T14:52:11.615Z,9.70
2018-03-23T14:54:40.971Z,9.60
2018-03-23T14:57:09.344Z,9.60
2018-03-23T14:59:37.726Z,9.50
2018-03-23T15:02:06.180Z,9.30
2018-03-23T15:04:34.555Z,9.00
2018-03-23T15:07:03.011Z,8.90
2018-03-23T15:09:32.245Z,8.80
2018-03-23T15:12:00.639Z,8.80
2018-03-23T15:14:31.783Z,8.90
2018-03-23T15:17:00.262Z,9.00
2018-03-23T15:19:28.638Z,9.10
2018-03-23T15:21:57.014Z,9.20
2018-03-23T15:24:25.418Z,9.30
2018-03-23T15:26:54.577Z,9.30
2018-03-23T15:29:22.983Z,9.30
2018-03-23T15:31:51.357Z,9.40
2018-03-23T15:34:20.240Z,9.40
2018-03-23T15:36:48.621Z,9.30
2018-03-23T15:39:16.990Z,9.20
2018-03-23T15:41:45.387Z,9.20
2018-03-23T15:44:13.776Z,9.10
2018-03-23T15:46:42.970Z,9.00
2018-03-23T15:49:11.348Z,9.00
2018-03-23T15:51:39.774Z,8.90
2018-03-23T15:54:08.146Z,8.90
2018-03-23T15:56:37.278Z,8.80
2018-03-23T15:59:05.682Z,8.70
2018-03-23T16:01:34.066Z,8.70
2018-03-23T16:04:02.461Z,8.70
2018-03-23T16:06:31.609Z,8.60
2018-03-23T16:09:00.195Z,8.70
2018-03-23T16:11:28.577Z,8.60
2018-03-23T16:13:56.951Z,8.60
2018-03-23T16:16:25.361Z,8.50
2018-03-23T16:18:53.775Z,8.50
2018-03-23T16:21:22.219Z,8.40
2018-03-23T16:23:50.602Z,8.30
2018-03-23T16:26:19.019Z,8.30
2018-03-23T16:28:47.402Z,8.20
2018-03-23T16:31:16.278Z,8.10
2018-03-23T16:33:44.727Z,8.00
2018-03-23T16:36:13.206Z,8.00
2018-03-23T16:38:41.610Z,7.90
2018-03-23T16:41:10.756Z,7.80
2018-03-23T16:43:39.340Z,7.80
2018-03-23T16:46:07.752Z,7.80
2018-03-23T16:48:36.146Z,7.80
2018-03-23T16:51:05.406Z,7.70
2018-03-23T16:53:33.907Z,7.70
2018-03-23T16:56:03.029Z,7.70
2018-03-23T16:58:32.179Z,7.80
2018-03-23T17:01:00.990Z,7.70
2018-03-23T17:03:30.233Z,7.70
2018-03-23T17:05:58.758Z,7.70
2018-03-23T17:08:27.540Z,7.70
2018-03-23T17:10:56.564Z,7.70
2018-03-23T17:13:26.319Z,7.70
2018-03-23T17:15:54.725Z,7.60
2018-03-23T17:18:23.209Z,7.70
2018-03-23T17:20:51.884Z,7.60
2018-03-23T17:23:20.363Z,7.60
2018-03-23T17:25:49.025Z,7.50
2018-03-23T17:28:17.427Z,7.50
2018-03-23T17:30:45.834Z,7.50
2018-03-23T17:33:15.752Z,7.40
2018-03-23T17:35:44.394Z,7.40
2018-03-23T17:38:12.957Z,7.40
2018-03-23T17:40:41.703Z,7.40
2018-03-23T17:43:12.615Z,7.30
2018-03-23T17:45:41.077Z,7.30
2018-03-23T17:48:09.507Z,7.30
2018-03-23T17:50:37.881Z,7.20
2018-03-23T17:53:06.288Z,7.20
2018-03-23T17:55:34.704Z,7.20
2018-03-23T17:58:03.093Z,7.20
2018-03-23T18:00:31.523Z,7.20
2018-03-23T18:02:59.920Z,7.20
2018-03-23T18:05:28.318Z,7.10
2018-03-23T18:07:56.963Z,7.10
2018-03-23T18:10:26.595Z,7.10
2018-03-23T18:12:54.962Z,7.10
2018-03-23T18:15:23.347Z,7.00
2018-03-23T18:17:52.445Z,7.00
2018-03-23T18:20:20.857Z,6.90
2018-03-23T18:22:49.305Z,6.90
2018-03-23T18:25:17.745Z,6.90
2018-03-23T18:27:46.915Z,6.80
2018-03-23T18:30:15.298Z,6.80
2018-03-23T18:32:43.704Z,6.90
2018-03-23T18:35:12.107Z,6.90
2018-03-23T18:37:40.737Z,6.90
2018-03-23T18:42:58.809Z,6.90
2018-03-23T18:45:27.178Z,6.80
2018-03-23T18:47:57.903Z,6.80
2018-03-23T18:50:29.156Z,6.80
2018-03-23T18:52:58.425Z,6.70
2018-03-23T18:55:26.833Z,6.70
2018-03-23T18:57:55.211Z,6.70
2018-03-23T19:00:23.610Z,6.70
2018-03-23T19:02:52.810Z,6.70
2018-03-23T19:05:21.429Z,6.70
2018-03-23T19:07:50.954Z,6.70
2018-03-23T19:10:20.475Z,6.70
2018-03-23T19:12:49.469Z,6.60
2018-03-23T19:15:17.995Z,6.70
2018-03-23T19:17:46.924Z,6.60
2018-03-23T19:20:15.571Z,6.60
2018-03-23T19:22:44.068Z,6.60
2018-03-23T19:25:13.103Z,6.50
2018-03-23T19:27:41.743Z,6.50
2018-03-23T19:30:10.155Z,6.50
2018-03-23T19:32:39.262Z,6.50
2018-03-23T19:35:07.654Z,6.50
2018-03-23T19:37:36.204Z,6.40
2018-03-23T19:40:04.653Z,6.40
2018-03-23T19:42:33.062Z,6.40
2018-03-23T19:45:01.501Z,6.40
2018-03-23T19:47:30.666Z,6.30
2018-03-23T19:49:59.067Z,6.30
2018-03-23T19:52:28.230Z,6.30
2018-03-23T19:54:56.617Z,6.30
2018-03-23T19:57:25.017Z,6.30
2018-03-23T19:59:58.353Z,6.30
2018-03-23T20:02:34.364Z,6.30
2018-03-23T20:05:08.474Z,6.20
2018-03-23T20:07:43.473Z,6.20
2018-03-23T20:10:18.297Z,6.20
2018-03-23T20:12:55.283Z,6.20
2018-03-23T20:15:24.246Z,6.20
2018-03-23T20:17:59.720Z,6.20
2018-03-23T20:20:33.953Z,6.20
2018-03-23T20:23:03.770Z,6.10
2018-03-23T20:25:32.257Z,6.10
2018-03-23T20:28:06.546Z,6.10
2018-03-23T20:30:34.995Z,6.00
2018-03-23T20:33:03.523Z,6.00
2018-03-23T20:35:32.065Z,6.00
2018-03-23T20:38:00.568Z,5.90
2018-03-23T20:40:28.979Z,5.90
2018-03-23T20:42:58.066Z,5.90
2018-03-23T20:45:26.585Z,5.90
2018-03-23T20:47:54.963Z,5.90
2018-03-23T20:50:23.394Z,5.90
2018-03-23T20:52:51.799Z,5.90
2018-03-23T20:55:20.178Z,5.80
2018-03-23T20:57:48.679Z,5.70
2018-03-23T21:00:17.816Z,5.70
2018-03-23T21:02:46.588Z,5.70
2018-03-23T21:05:14.964Z,5.60
2018-03-23T21:07:44.223Z,5.60
2018-03-23T21:10:13.663Z,5.60
2018-03-23T21:12:42.102Z,5.60
2018-03-23T21:15:10.951Z,5.50
2018-03-23T21:17:39.595Z,5.50
2018-03-23T21:20:08.833Z,5.40
2018-03-23T21:22:37.752Z,5.30
2018-03-23T21:25:06.366Z,5.30
2018-03-23T21:27:35.528Z,5.40
2018-03-23T21:30:04.691Z,5.30
2018-03-23T21:32:33.094Z,5.30
2018-03-23T21:35:01.507Z,5.40
2018-03-23T21:37:30.758Z,5.40
2018-03-23T21:39:59.382Z,5.40
2018-03-23T21:42:28.131Z,5.40
2018-03-23T21:44:57.681Z,5.40
2018-03-23T21:47:26.828Z,5.40
2018-03-23T21:49:55.222Z,5.40
2018-03-23T21:52:23.791Z,5.40
2018-03-23T21:54:52.322Z,5.40
2018-03-23T21:57:21.515Z,5.30
2018-03-23T21:59:49.877Z,5.30
2018-03-23T22:02:18.294Z,5.40
2018-03-23T22:04:47.529Z,5.50
2018-03-23T22:07:16.340Z,5.50
2018-03-23T22:09:44.723Z,5.50
2018-03-23T22:12:13.384Z,5.60
2018-03-23T22:14:41.763Z,5.60
2018-03-23T22:17:10.187Z,5.60
2018-03-23T22:19:39.457Z,5.60
2018-03-23T22:22:07.834Z,5.60
2018-03-23T22:24:36.284Z,5.60
2018-03-23T22:27:04.666Z,5.60
2018-03-23T22:29:33.095Z,5.60
2018-03-23T22:32:01.538Z,5.60
2018-03-23T22:34:30.525Z,5.60
2018-03-23T22:36:58.964Z,5.70
2018-03-23T22:39:28.230Z,5.70
2018-03-23T22:41:56.631Z,5.60
2018-03-23T22:44:25.933Z,5.70
2018-03-23T22:46:55.183Z,5.60
2018-03-23T22:49:23.559Z,5.60
2018-03-23T22:51:51.970Z,5.60
2018-03-23T22:54:20.342Z,5.60
2018-03-23T22:56:48.753Z,5.60
2018-03-23T22:59:17.891Z,5.60
2018-03-23T23:01:46.258Z,5.60
2018-03-23T23:04:14.663Z,5.60
2018-03-23T23:06:43.038Z,5.60
2018-03-23T23:09:11.509Z,5.50
2018-03-23T23:11:39.875Z,5.50
2018-03-23T23:14:08.562Z,5.50
2018-03-23T23:16:37.021Z,5.50
2018-03-23T23:19:05.392Z,5.50
2018-03-23T23:21:34.595Z,5.40
2018-03-23T23:24:02.970Z,5.40
2018-03-23T23:26:31.369Z,5.50
2018-03-23T23:28:59.766Z,5.50
2018-03-23T23:31:28.255Z,5.50
2018-03-23T23:33:56.693Z,5.40
2018-03-23T23:36:25.621Z,5.40
2018-03-23T23:38:54.066Z,5.30
2018-03-23T23:41:22.563Z,5.30
2018-03-23T23:43:50.982Z,5.30
2018-03-23T23:46:19.362Z,5.30
2018-03-23T23:48:47.750Z,5.30
2018-03-23T23:51:16.123Z,5.30
2018-03-23T23:53:44.671Z,5.30
2018-03-23T23:56:13.048Z,5.20
2018-03-23T23:58:41.421Z,5.20
